createdAt,value
2019-02-21T00:01:38.804Z,7.97
2019-02-21T00:04:10.467Z,7.95
2019-02-21T00:06:42.122Z,7.88
2019-02-21T00:09:13.864Z,7.91
2019-02-21T00:11:45.755Z,7.86
2019-02-21T00:14:17.661Z,7.78
2019-02-21T00:16:49.569Z,7.71
2019-02-21T00:19:22.352Z,7.64
2019-02-21T00:21:54.142Z,7.66
2019-02-21T00:24:25.806Z,7.59
2019-02-21T00:26:57.393Z,7.64
2019-02-21T00:29:28.977Z,7.66
2019-02-21T00:32:01.534Z,7.67
2019-02-21T00:34:33.198Z,7.68
2019-02-21T00:37:05.754Z,7.69
2019-02-21T00:39:37.338Z,7.70
2019-02-21T00:42:09.730Z,7.66
2019-02-21T00:44:41.871Z,7.65
2019-02-21T00:47:13.812Z,7.65
2019-02-21T00:49:45.473Z,7.69
2019-02-21T00:52:17.052Z,7.68
2019-02-21T00:54:48.762Z,7.74
2019-02-21T00:57:20.386Z,7.77
2019-02-21T00:59:51.997Z,7.73
2019-02-21T01:02:23.587Z,7.74
2019-02-21T01:04:55.247Z,7.77
2019-02-21T01:07:26.846Z,7.71
2019-02-21T01:09:59.528Z,7.67
2019-02-21T01:12:31.170Z,7.62
2019-02-21T01:15:02.850Z,7.64
2019-02-21T01:17:34.493Z,7.64
2019-02-21T01:20:06.413Z,7.65
2019-02-21T01:22:38.088Z,7.64
2019-02-21T01:25:10.069Z,7.63
2019-02-21T01:27:41.711Z,7.60
2019-02-21T01:30:13.590Z,7.58
2019-02-21T01:32:45.186Z,7.65
2019-02-21T01:35:16.863Z,7.65
2019-02-21T01:37:48.541Z,7.58
2019-02-21T01:40:20.169Z,7.58
2019-02-21T01:42:51.832Z,7.57
2019-02-21T01:45:23.437Z,7.59
2019-02-21T01:47:55.084Z,7.58
2019-02-21T01:50:26.665Z,7.52
2019-02-21T01:52:58.404Z,7.56
2019-02-21T01:55:30.062Z,7.60
2019-02-21T01:58:01.748Z,7.57
2019-02-21T02:00:33.523Z,7.61
2019-02-21T02:03:05.211Z,7.62
2019-02-21T02:05:36.817Z,7.62
2019-02-21T02:08:08.470Z,7.64
2019-02-21T02:10:40.069Z,7.63
2019-02-21T02:13:23.722Z,7.58
2019-02-21T02:15:45.296Z,7.56
2019-02-21T02:18:16.963Z,7.57
2019-02-21T02:20:48.572Z,7.45
2019-02-21T02:23:20.159Z,7.46
2019-02-21T02:25:51.821Z,7.42
2019-02-21T02:28:24.470Z,7.40
2019-02-21T02:30:56.063Z,7.46
2019-02-21T02:33:27.714Z,7.40
2019-02-21T02:35:59.315Z,7.32
2019-02-21T02:38:30.899Z,7.34
2019-02-21T02:41:02.597Z,7.33
2019-02-21T02:43:34.255Z,7.35
2019-02-21T02:46:05.929Z,7.35
2019-02-21T02:48:37.597Z,7.36
2019-02-21T02:51:09.276Z,7.30
2019-02-21T02:53:40.868Z,7.24
2019-02-21T02:56:12.466Z,7.28
2019-02-21T02:58:45.605Z,7.24
2019-02-21T03:01:18.594Z,7.24
2019-02-21T03:03:50.253Z,7.21
2019-02-21T03:06:21.935Z,7.20
2019-02-21T03:08:53.612Z,7.25
2019-02-21T03:11:25.227Z,7.21
2019-02-21T03:13:56.820Z,7.26
2019-02-21T03:16:29.479Z,7.23
2019-02-21T03:19:01.072Z,7.19
2019-02-21T03:21:32.717Z,7.12
2019-02-21T03:24:04.295Z,7.18
2019-02-21T03:26:35.883Z,7.13
2019-02-21T03:29:07.473Z,7.14
2019-02-21T03:31:53.466Z,7.12
2019-02-21T03:34:12.380Z,7.03
2019-02-21T03:36:43.970Z,7.03
2019-02-21T03:39:15.824Z,7.01
2019-02-21T03:41:47.723Z,7.03
2019-02-21T03:44:19.289Z,6.98
2019-02-21T03:46:50.895Z,6.99
2019-02-21T03:49:22.482Z,6.97
2019-02-21T03:51:54.090Z,6.88
2019-02-21T03:54:25.811Z,6.83
2019-02-21T03:56:57.419Z,6.83
2019-02-21T03:59:29.072Z,6.86
2019-02-21T04:02:05.245Z,6.80
2019-02-21T04:04:33.980Z,6.79
2019-02-21T04:07:05.589Z,6.76
2019-02-21T04:09:37.242Z,6.81
2019-02-21T04:12:08.841Z,6.88
2019-02-21T04:14:40.563Z,6.88
2019-02-21T04:17:12.156Z,6.93
2019-02-21T04:19:43.905Z,6.88
2019-02-21T04:22:15.516Z,6.77
2019-02-21T04:24:47.101Z,6.80
2019-02-21T04:27:18.767Z,6.83
2019-02-21T04:29:50.339Z,6.73
2019-02-21T04:32:21.927Z,6.75
2019-02-21T04:34:53.565Z,6.76
2019-02-21T04:37:25.167Z,6.79
2019-02-21T04:39:56.805Z,6.76
2019-02-21T04:42:29.413Z,6.78
2019-02-21T04:45:00.994Z,6.72
2019-02-21T04:47:33.783Z,6.76
2019-02-21T04:50:05.471Z,6.81
2019-02-21T04:52:37.157Z,6.77
2019-02-21T04:55:08.753Z,6.77
2019-02-21T04:57:40.355Z,6.76
2019-02-21T05:00:12.574Z,6.56
2019-02-21T05:02:44.245Z,6.51
2019-02-21T05:05:15.883Z,6.55
2019-02-21T05:07:47.793Z,6.50
2019-02-21T05:10:19.644Z,6.54
2019-02-21T05:12:51.256Z,6.43
2019-02-21T05:15:22.915Z,6.42
2019-02-21T05:17:54.523Z,6.43
2019-02-21T05:20:26.118Z,6.39
2019-02-21T05:22:57.708Z,6.39
2019-02-21T05:25:29.290Z,6.42
2019-02-21T05:28:17.980Z,6.52
2019-02-21T05:30:51.499Z,6.48
2019-02-21T05:33:43.944Z,6.45
2019-02-21T05:36:37.356Z,6.46
2019-02-21T05:39:36.574Z,6.36
2019-02-21T05:42:25.569Z,6.34
2019-02-21T05:45:27.808Z,6.26
2019-02-21T05:48:12.780Z,6.18
2019-02-21T05:50:52.010Z,6.20
2019-02-21T05:53:36.725Z,6.21
2019-02-21T05:56:30.085Z,6.21
2019-02-21T05:59:14.210Z,6.08
2019-02-21T06:02:13.650Z,6.12
2019-02-21T06:05:01.503Z,6.09
2019-02-21T06:07:57.990Z,6.01
2019-02-21T06:10:48.544Z,6.05
2019-02-21T06:13:31.038Z,6.11
2019-02-21T06:16:08.424Z,6.08
2019-02-21T06:18:58.912Z,6.10
2019-02-21T06:21:50.991Z,6.05
2019-02-21T06:24:33.379Z,6.03
2019-02-21T06:27:12.094Z,5.99
2019-02-21T06:29:56.866Z,5.85
2019-02-21T06:32:28.534Z,5.91
2019-02-21T06:35:02.542Z,5.96
2019-02-21T06:37:33.488Z,5.90
2019-02-21T06:40:05.119Z,5.99
2019-02-21T06:42:36.794Z,5.94
2019-02-21T06:45:08.412Z,5.92
2019-02-21T06:47:41.062Z,5.98
2019-02-21T06:50:14.586Z,5.96
2019-02-21T06:52:46.488Z,5.86
2019-02-21T06:55:20.512Z,5.90
2019-02-21T06:57:51.442Z,5.92
2019-02-21T07:00:23.066Z,5.94
2019-02-21T07:02:55.239Z,5.93
2019-02-21T07:05:27.050Z,6.04
2019-02-21T07:07:59.692Z,6.07
2019-02-21T07:10:31.301Z,6.14
2019-02-21T07:13:03.057Z,6.16
2019-02-21T07:15:34.787Z,6.16
2019-02-21T07:18:08.059Z,6.20
2019-02-21T07:20:39.917Z,6.17
2019-02-21T07:23:11.622Z,6.24
2019-02-21T07:25:47.652Z,6.31
2019-02-21T07:28:19.241Z,6.23
2019-02-21T07:30:51.550Z,6.11
2019-02-21T07:33:28.306Z,6.13
2019-02-21T07:35:56.608Z,6.18
2019-02-21T07:38:28.183Z,6.08
2019-02-21T07:40:59.851Z,6.21
2019-02-21T07:43:31.612Z,6.22
2019-02-21T07:46:03.255Z,6.13
2019-02-21T07:48:36.522Z,6.20
2019-02-21T07:51:09.194Z,6.32
2019-02-21T07:53:42.458Z,6.34
2019-02-21T07:56:14.818Z,6.38
2019-02-21T07:58:46.621Z,6.47
2019-02-21T08:01:19.283Z,6.51
2019-02-21T08:03:50.939Z,6.47
2019-02-21T08:06:22.530Z,6.55
2019-02-21T08:08:54.210Z,6.56
2019-02-21T08:11:26.058Z,6.57
2019-02-21T08:14:00.361Z,6.54
2019-02-21T08:16:32.282Z,6.62
2019-02-21T08:19:03.952Z,6.61
2019-02-21T08:21:37.975Z,6.70
2019-02-21T08:24:12.176Z,6.74
2019-02-21T08:26:43.802Z,6.68
2019-02-21T08:29:15.563Z,6.77
2019-02-21T08:31:47.662Z,6.78
2019-02-21T08:34:23.828Z,6.79
2019-02-21T08:36:55.508Z,6.81
2019-02-21T08:39:27.177Z,6.76
2019-02-21T08:41:58.855Z,6.78
2019-02-21T08:44:30.588Z,6.68
2019-02-21T08:47:02.228Z,6.69
2019-02-21T08:49:33.956Z,6.76
2019-02-21T08:52:05.561Z,6.78
2019-02-21T08:54:39.801Z,6.73
2019-02-21T08:57:13.394Z,6.63
2019-02-21T08:59:46.040Z,6.57
2019-02-21T09:02:18.102Z,6.52
2019-02-21T09:04:49.767Z,6.49
2019-02-21T09:07:21.351Z,6.48
2019-02-21T09:09:52.976Z,6.39
2019-02-21T09:12:24.678Z,6.40
2019-02-21T09:14:56.736Z,6.46
2019-02-21T09:17:28.685Z,6.42
2019-02-21T09:20:00.388Z,6.46
2019-02-21T09:22:32.091Z,6.50
2019-02-21T09:25:03.887Z,6.43
2019-02-21T09:27:35.502Z,6.43
2019-02-21T09:30:17.667Z,6.43
2019-02-21T09:32:49.854Z,6.43
2019-02-21T09:35:22.147Z,6.40
2019-02-21T09:37:53.810Z,6.40
2019-02-21T09:40:25.440Z,6.41
2019-02-21T09:42:57.154Z,6.43
2019-02-21T09:45:28.861Z,6.40
2019-02-21T09:48:01.191Z,6.41
2019-02-21T09:50:33.926Z,6.34
2019-02-21T09:53:05.633Z,6.25
2019-02-21T09:55:37.274Z,6.28
2019-02-21T09:58:08.976Z,6.32
2019-02-21T10:00:40.673Z,6.26
2019-02-21T10:03:12.560Z,6.28
2019-02-21T10:05:44.297Z,6.32
2019-02-21T10:08:18.317Z,6.36
2019-02-21T10:10:50.009Z,6.45
2019-02-21T10:13:21.624Z,6.46
2019-02-21T10:15:53.327Z,6.48
2019-02-21T10:18:25.000Z,6.53
2019-02-21T10:20:56.769Z,6.52
2019-02-21T10:23:28.642Z,6.70
2019-02-21T10:26:00.318Z,6.69
2019-02-21T10:28:32.654Z,6.77
2019-02-21T10:31:04.639Z,6.77
2019-02-21T10:33:46.229Z,6.81
2019-02-21T10:36:12.310Z,6.77
2019-02-21T10:38:44.868Z,6.82
2019-02-21T10:41:17.189Z,6.77
2019-02-21T10:43:49.879Z,6.78
2019-02-21T10:46:21.657Z,6.79
2019-02-21T10:48:54.930Z,6.81
2019-02-21T10:51:27.247Z,6.86
2019-02-21T10:53:59.254Z,6.93
2019-02-21T10:56:31.344Z,6.87
2019-02-21T10:59:02.979Z,6.94
2019-02-21T11:01:34.977Z,6.95
2019-02-21T11:04:06.770Z,7.02
2019-02-21T11:06:38.676Z,7.03
2019-02-21T11:09:14.702Z,7.02
2019-02-21T11:11:46.503Z,7.08
2019-02-21T11:14:18.173Z,7.10
2019-02-21T11:16:49.862Z,7.08
2019-02-21T11:19:21.956Z,7.08
2019-02-21T11:21:55.443Z,7.02
2019-02-21T11:24:27.133Z,7.04
2019-02-21T11:26:58.788Z,7.10
2019-02-21T11:29:30.386Z,7.14
2019-02-21T11:32:01.995Z,7.12
2019-02-21T11:34:34.147Z,7.10
2019-02-21T11:37:06.002Z,7.08
2019-02-21T11:39:39.504Z,7.03
2019-02-21T11:42:12.763Z,7.05
2019-02-21T11:44:44.631Z,7.11
2019-02-21T11:47:16.246Z,7.17
2019-02-21T11:49:49.122Z,7.12
2019-02-21T11:52:20.751Z,7.16
2019-02-21T11:54:52.417Z,7.11
2019-02-21T11:57:24.143Z,7.07
2019-02-21T11:59:55.730Z,7.05
2019-02-21T12:02:27.343Z,7.02
2019-02-21T12:04:58.999Z,7.06
2019-02-21T12:07:30.625Z,7.11
2019-02-21T12:10:02.244Z,7.10
2019-02-21T12:12:34.018Z,7.09
2019-02-21T12:15:07.791Z,7.10
2019-02-21T12:17:42.330Z,7.08
2019-02-21T12:20:13.566Z,7.10
2019-02-21T12:22:45.759Z,7.09
2019-02-21T12:25:17.814Z,7.06
2019-02-21T12:27:49.483Z,7.07
2019-02-21T12:30:21.108Z,7.07
2019-02-21T12:32:52.787Z,7.14
2019-02-21T12:35:29.538Z,7.12
2019-02-21T12:37:57.728Z,7.13
2019-02-21T12:40:29.336Z,7.15
2019-02-21T12:43:00.997Z,7.06
2019-02-21T12:45:32.666Z,7.10
2019-02-21T12:48:04.404Z,7.03
2019-02-21T12:50:43.861Z,7.01
2019-02-21T12:53:09.915Z,7.10
2019-02-21T12:55:41.749Z,7.12
2019-02-21T12:58:13.327Z,7.07
2019-02-21T13:00:45.026Z,7.10
2019-02-21T13:03:16.705Z,7.09
2019-02-21T13:05:48.295Z,7.08
2019-02-21T13:08:19.956Z,7.09
2019-02-21T13:10:52.033Z,7.13
2019-02-21T13:13:23.768Z,7.13
2019-02-21T13:15:55.361Z,7.14
2019-02-21T13:18:27.019Z,7.12
2019-02-21T13:20:58.694Z,7.10
2019-02-21T13:23:30.271Z,7.08
2019-02-21T13:26:02.061Z,7.13
2019-02-21T13:28:34.109Z,7.14
2019-02-21T13:31:05.917Z,7.08
2019-02-21T13:33:37.604Z,7.13
2019-02-21T13:36:09.204Z,7.16
2019-02-21T13:38:40.862Z,7.21
2019-02-21T13:41:12.443Z,7.22
2019-02-21T13:43:44.027Z,7.22
2019-02-21T13:46:15.863Z,7.27
2019-02-21T13:48:47.731Z,7.29
2019-02-21T13:51:19.391Z,7.22
2019-02-21T13:53:52.355Z,7.24
2019-02-21T13:56:24.163Z,7.24
2019-02-21T13:58:55.772Z,7.22
2019-02-21T14:01:27.562Z,7.18
2019-02-21T14:03:59.723Z,7.21
2019-02-21T14:06:31.333Z,7.27
2019-02-21T14:09:03.037Z,7.26
2019-02-21T14:11:36.209Z,7.27
2019-02-21T14:14:07.819Z,7.27
2019-02-21T14:16:46.724Z,7.33
2019-02-21T14:19:13.071Z,7.37
2019-02-21T14:21:44.934Z,7.38
2019-02-21T14:24:16.533Z,7.34
2019-02-21T14:26:48.120Z,7.34
2019-02-21T14:29:19.800Z,7.33
2019-02-21T14:31:51.452Z,7.35
2019-02-21T14:34:23.152Z,7.36
2019-02-21T14:36:54.820Z,7.38
2019-02-21T14:39:26.504Z,7.39
2019-02-21T14:41:58.093Z,7.40
2019-02-21T14:44:29.715Z,7.39
2019-02-21T14:47:01.492Z,7.38
2019-02-21T14:49:33.132Z,7.42
2019-02-21T14:52:04.742Z,7.45
2019-02-21T14:54:38.115Z,7.44
2019-02-21T14:57:10.139Z,7.40
2019-02-21T14:59:44.664Z,7.39
2019-02-21T15:02:16.388Z,7.39
2019-02-21T15:04:48.351Z,7.42
2019-02-21T15:07:19.944Z,7.41
2019-02-21T15:09:51.873Z,7.42
2019-02-21T15:12:23.579Z,7.47
2019-02-21T15:14:55.330Z,7.49
2019-02-21T15:17:26.919Z,7.48
2019-02-21T15:19:59.507Z,7.50
2019-02-21T15:22:31.156Z,7.43
2019-02-21T15:25:02.831Z,7.45
2019-02-21T15:27:34.491Z,7.45
2019-02-21T15:30:06.641Z,7.47
2019-02-21T15:32:38.907Z,7.48
2019-02-21T15:35:10.543Z,7.51
2019-02-21T15:37:44.895Z,7.54
2019-02-21T15:40:15.992Z,7.58
2019-02-21T15:42:47.874Z,7.59
2019-02-21T15:45:23.478Z,7.59
2019-02-21T15:47:54.413Z,7.60
2019-02-21T15:50:26.071Z,7.60
2019-02-21T15:52:58.336Z,7.60
2019-02-21T15:55:32.062Z,7.65
2019-02-21T15:58:04.654Z,7.62
2019-02-21T16:00:36.428Z,7.61
2019-02-21T16:03:08.413Z,7.63
2019-02-21T16:05:40.170Z,7.61
2019-02-21T16:08:12.982Z,7.59
2019-02-21T16:10:45.103Z,7.60
2019-02-21T16:13:17.394Z,7.61
2019-02-21T16:15:50.784Z,7.58
2019-02-21T16:18:22.444Z,7.60
2019-02-21T16:20:54.052Z,7.59
2019-02-21T16:23:25.622Z,7.56
2019-02-21T16:25:57.796Z,7.58
2019-02-21T16:28:29.396Z,7.58
2019-02-21T16:31:01.070Z,7.57
2019-02-21T16:33:32.720Z,7.57
2019-02-21T16:36:04.309Z,7.61
2019-02-21T16:38:35.883Z,7.60
2019-02-21T16:41:07.478Z,7.58
2019-02-21T16:43:39.131Z,7.59
2019-02-21T16:46:10.793Z,7.54
2019-02-21T16:48:42.467Z,7.57
2019-02-21T16:51:14.135Z,7.59
2019-02-21T16:53:45.734Z,7.62
2019-02-21T16:56:17.488Z,7.64
2019-02-21T16:58:49.353Z,7.63
2019-02-21T17:01:21.236Z,7.68
2019-02-21T17:03:52.880Z,7.72
2019-02-21T17:06:24.557Z,7.70
2019-02-21T17:08:56.207Z,7.65
2019-02-21T17:11:27.799Z,7.67
2019-02-21T17:13:59.431Z,7.67
2019-02-21T17:16:31.126Z,7.61
2019-02-21T17:19:02.735Z,7.59
2019-02-21T17:21:34.412Z,7.57
2019-02-21T17:24:06.010Z,7.56
2019-02-21T17:26:37.709Z,7.52
2019-02-21T17:29:09.387Z,7.57
2019-02-21T17:31:41.084Z,7.52
2019-02-21T17:34:12.683Z,7.50
2019-02-21T17:36:44.723Z,7.53
2019-02-21T17:39:16.482Z,7.55
2019-02-21T17:41:48.404Z,7.55
2019-02-21T17:44:20.065Z,7.56
2019-02-21T17:46:51.734Z,7.60
2019-02-21T17:49:23.627Z,7.65
2019-02-21T17:51:55.419Z,7.63
2019-02-21T17:54:27.861Z,7.63
2019-02-21T17:56:59.505Z,7.66
2019-02-21T17:59:31.180Z,7.68
2019-02-21T18:02:02.834Z,7.70
2019-02-21T18:04:34.514Z,7.74
2019-02-21T18:07:06.199Z,7.72
2019-02-21T18:09:37.898Z,7.71
2019-02-21T18:12:09.558Z,7.72
2019-02-21T18:14:41.155Z,7.72
2019-02-21T18:17:12.765Z,7.75
2019-02-21T18:19:44.545Z,7.73
2019-02-21T18:22:16.496Z,7.75
2019-02-21T18:24:48.384Z,7.74
2019-02-21T18:27:20.208Z,7.69
2019-02-21T18:29:51.797Z,7.73
2019-02-21T18:32:24.260Z,7.71
2019-02-21T18:34:55.917Z,7.68
2019-02-21T18:37:27.528Z,7.74
2019-02-21T18:39:59.138Z,7.71
2019-02-21T18:42:30.810Z,7.69
2019-02-21T18:45:02.475Z,7.73
2019-02-21T18:47:34.139Z,7.73
2019-02-21T18:50:06.265Z,7.74
2019-02-21T18:52:37.949Z,7.70
2019-02-21T18:55:09.576Z,7.66
2019-02-21T18:57:41.449Z,7.71
2019-02-21T19:00:14.352Z,7.68
2019-02-21T19:02:47.686Z,7.70
2019-02-21T19:05:20.358Z,7.70
2019-02-21T19:08:03.345Z,7.68
2019-02-21T19:10:25.371Z,7.69
2019-02-21T19:12:57.050Z,7.66
2019-02-21T19:15:29.478Z,7.65
2019-02-21T19:18:01.260Z,7.72
2019-02-21T19:20:32.941Z,7.74
2019-02-21T19:23:05.906Z,7.71
2019-02-21T19:25:37.624Z,7.76
2019-02-21T19:28:09.378Z,7.70
2019-02-21T19:30:44.637Z,7.76
2019-02-21T19:33:19.685Z,7.76
2019-02-21T19:35:52.201Z,7.83
2019-02-21T19:38:25.390Z,7.84
2019-02-21T19:40:57.665Z,7.86
2019-02-21T19:43:29.315Z,7.85
2019-02-21T19:46:01.155Z,7.88
2019-02-21T19:48:33.137Z,7.88
2019-02-21T19:51:05.110Z,7.89
2019-02-21T19:53:37.153Z,7.89
2019-02-21T19:56:11.133Z,7.94
2019-02-21T19:58:47.341Z,7.93
2019-02-21T20:01:19.234Z,7.93
2019-02-21T20:03:51.057Z,7.93
2019-02-21T20:06:25.674Z,7.98
2019-02-21T20:08:57.655Z,7.93
2019-02-21T20:11:29.461Z,8.00
2019-02-21T20:14:01.206Z,8.00
2019-02-21T20:16:32.897Z,8.01
2019-02-21T20:19:04.578Z,8.00
2019-02-21T20:21:37.178Z,8.08
2019-02-21T20:24:09.351Z,8.08
2019-02-21T20:26:42.824Z,8.07
2019-02-21T20:29:15.044Z,8.10
2019-02-21T20:31:46.931Z,8.07
2019-02-21T20:34:19.034Z,8.13
2019-02-21T20:36:51.546Z,8.10
2019-02-21T20:39:23.637Z,8.06
2019-02-21T20:41:55.619Z,8.04
2019-02-21T20:44:27.721Z,8.06
2019-02-21T20:46:59.547Z,8.07
2019-02-21T20:49:32.396Z,8.08
2019-02-21T20:52:04.651Z,8.08
2019-02-21T20:54:36.498Z,8.13
2019-02-21T20:57:11.282Z,8.13
2019-02-21T20:59:43.424Z,8.15
2019-02-21T21:02:15.728Z,8.03
2019-02-21T21:04:48.579Z,8.02
2019-02-21T21:07:25.152Z,8.02
2019-02-21T21:09:54.430Z,7.97
2019-02-21T21:12:26.776Z,7.97
2019-02-21T21:14:58.561Z,8.01
2019-02-21T21:17:30.360Z,8.05
2019-02-21T21:20:03.675Z,8.04
2019-02-21T21:22:36.582Z,8.03
2019-02-21T21:25:10.462Z,8.06
2019-02-21T21:27:42.416Z,8.07
2019-02-21T21:30:14.817Z,8.07
2019-02-21T21:32:46.918Z,8.08
2019-02-21T21:35:18.774Z,8.14
2019-02-21T21:37:50.775Z,8.16
2019-02-21T21:40:22.588Z,8.14
2019-02-21T21:42:54.729Z,8.11
2019-02-21T21:45:27.169Z,8.16
2019-02-21T21:47:58.995Z,8.12
2019-02-21T21:50:30.669Z,8.17
2019-02-21T21:53:02.445Z,8.14
2019-02-21T21:55:34.171Z,8.18
2019-02-21T21:58:05.952Z,8.13
2019-02-21T22:00:39.331Z,8.13
2019-02-21T22:03:13.323Z,8.15
2019-02-21T22:05:46.033Z,8.20
2019-02-21T22:08:17.662Z,8.24
2019-02-21T22:10:49.436Z,8.23
2019-02-21T22:13:21.131Z,8.22
2019-02-21T22:15:57.715Z,8.21
2019-02-21T22:18:29.420Z,8.25
2019-02-21T22:21:01.031Z,8.23
2019-02-21T22:23:32.698Z,8.24
2019-02-21T22:26:04.424Z,8.21
2019-02-21T22:28:36.009Z,8.21
2019-02-21T22:31:07.603Z,8.19
2019-02-21T22:33:39.259Z,8.18
2019-02-21T22:36:10.866Z,8.19
2019-02-21T22:38:42.570Z,8.20
2019-02-21T22:41:14.192Z,8.20
2019-02-21T22:43:45.778Z,8.21
2019-02-21T22:46:17.573Z,8.23
2019-02-21T22:48:49.580Z,8.24
2019-02-21T22:51:21.276Z,8.22
2019-02-21T22:53:52.910Z,8.28
2019-02-21T22:56:24.537Z,8.21
2019-02-21T22:58:56.199Z,8.25
2019-02-21T23:01:34.112Z,8.21
2019-02-21T23:05:00.790Z,8.23
2019-02-21T23:07:40.924Z,8.29
2019-02-21T23:10:12.525Z,8.27
2019-02-21T23:12:44.272Z,8.22
2019-02-21T23:15:17.528Z,8.29
2019-02-21T23:17:49.436Z,8.23
2019-02-21T23:20:21.011Z,8.19
2019-02-21T23:22:53.711Z,8.27
2019-02-21T23:25:25.439Z,8.33
2019-02-21T23:27:57.085Z,8.34
2019-02-21T23:30:28.733Z,8.32
2019-02-21T23:33:00.397Z,8.29
2019-02-21T23:35:32.051Z,8.28
2019-02-21T23:38:03.669Z,8.23
2019-02-21T23:40:37.038Z,8.23
2019-02-21T23:43:09.766Z,8.26
2019-02-21T23:45:41.489Z,8.22
2019-02-21T23:48:13.086Z,8.24
2019-02-21T23:50:44.690Z,8.27
2019-02-21T23:53:16.768Z,8.18
2019-02-21T23:55:48.482Z,8.20
2019-02-21T23:58:20.309Z,8.22
